Game Details

[ Leader Board ] [ Players ] [ Opponents ] [ Guilds ] [ Areas ]

Game Details for: ChuckieB

Game Progress

Quest Completed on Day
Ackeron Savior 85
Earth Savior 85
Plasma Cube 81
Rescue Annie 80
Arena 5 67
Xornium 55
Pulse Matrix 53
Arena 4 52
Lab Power 46
Old Lab 44
Trader 4 40
Trader 6 40
Arena 3 31
Data Cubes 29
Chaak Mine 16
Insect Cave 16
Arena 1 11
Dave and Heidi 7
Mushroom Stew 5

Full Telemetry

Time Game Day Game Hour Game Minute Type Details Value Extra Zone X Y Credits Guild
6/29/2016 5:05:27 PM 80 20 55 Equip Exquisite Shiny Energy Field 608 Base1 23 8 8402 Smuggler
6/29/2016 5:04:42 PM 80 20 49 Combat Lv 3 Destroyer 0 Win Base1 12 15 8402 Smuggler
6/29/2016 5:03:55 PM 80 20 49 Equip Alien Kinetic Field 525 Base1 12 15 8085 Smuggler
6/29/2016 5:02:48 PM 80 20 47 Combat Lv 1 Annihilator 0 Win Base1 3 16 8085 Smuggler
6/29/2016 5:01:50 PM 80 20 42 Combat Lv 2 Destroyer 0 Win Base1 4 12 6657 Smuggler
6/29/2016 4:59:32 PM 80 20 33 Combat Lv 1 Annihilator 0 Win Base1 11 4 6369 Smuggler
6/29/2016 4:57:20 PM 80 20 19 Quest Rescue Annie 0 Village10 4 12 5917 Smuggler
6/29/2016 4:57:11 PM 80 20 18 Save 0 0 Village10 7 13 5917 Smuggler
6/29/2016 4:56:41 PM 80 17 24 Combat Lv 5 Chaak Blazer 0 Win Wilderness5 25 7 5917 Smuggler
6/29/2016 4:56:27 PM 80 17 24 Equip Exquisite Combat Helmet 766 Wilderness5 25 7 5707 Smuggler
6/29/2016 4:56:12 PM 80 17 24 Equip Exquisite Shiny Energy Field 608 Wilderness5 25 7 5707 Smuggler
6/29/2016 4:54:57 PM 80 16 50 Combat Lv 2 Marauder 0 Win Raider2 19 7 5707 Smuggler
6/29/2016 4:53:29 PM 80 16 37 Combat Lv 2 Marauder 0 Win Raider2 13 19 5286 Smuggler
6/29/2016 4:52:03 PM 80 16 37 Combat Lv 2 Marauder 0 Win Raider2 10 19 4893 Smuggler
6/29/2016 4:51:01 PM 80 16 34 Combat Lv 3 Bandit 0 Win Raider2 8 15 4475 Smuggler
6/29/2016 4:49:37 PM 80 16 32 Combat Lv 3 Bandit 0 Win Raider2 12 16 3964 Smuggler
6/29/2016 4:48:29 PM 80 16 30 Combat Lv 3 Bandit 0 Win Raider2 6 18 3483 Smuggler
6/29/2016 4:47:44 PM 80 16 30 Equip Aero Steel Cap 387 Raider2 6 18 2991 Smuggler
6/29/2016 4:47:32 PM 80 16 30 Equip Aero Inert D Field 622 Raider2 6 18 2991 Smuggler
6/29/2016 4:46:24 PM 80 16 25 Save 1 1 Raider2 6 7 1691 Smuggler
6/29/2016 4:46:00 PM 80 16 25 Nexus Quest 0 Raider Raider2 6 7 1691 Smuggler
6/29/2016 4:46:00 PM 80 16 25 Combat Bandit Lord 0 Win Raider2 6 7 1691 Smuggler
6/29/2016 4:44:40 PM 80 16 24 Equip Exquisite Shiny Energy Field 608 Raider2 7 8 622 Smuggler
6/29/2016 4:44:28 PM 80 16 24 Equip Alien Psi Energy Field 808 Raider2 7 8 622 Smuggler
6/29/2016 4:44:17 PM 80 16 24 Equip Exquisite Combat Helmet 766 Raider2 7 8 622 Smuggler
6/29/2016 4:43:50 PM 80 16 25 Combat Bandit Lord 0 Die Raider2 6 6 622 Smuggler
6/29/2016 4:42:30 PM 80 16 24 Save 1 2 Raider2 7 8 622 Smuggler
6/29/2016 4:41:56 PM 80 15 12 Combat Lv 5 Chaak Blazer 0 Win Wilderness5 27 14 622 Smuggler
6/29/2016 4:15:12 PM 80 9 1 Commodity Metal 54 Buy Village10 24 6 494 Smuggler
6/29/2016 4:15:10 PM 80 9 1 Commodity Metal 54 Buy Village10 24 6 548 Smuggler